Time;durP1;ratioP1;P1;durP2;ratioP2;P2;SDS_P1;SDS_P2;PMS_P1;PMS_P2;Temp;Humidity;BMP_temperature;BMP_pressure;BME280_temperature;BME280_humidity;BME280_pressure;Samples;Min_cycle;Max_cycle;Signal;HPM_P1;HPM_P2
2023/05/15 00:04:27;;;;;;;2.55;2.35;;;;;;;15.08;66.11;98772.38;7400467;39;21687;31
2023/05/15 00:09:59;;;;;;;2.87;2.13;;;;;;;15.04;66.65;98775.69;7376482;39;20408;31
2023/05/15 00:15:17;;;;;;;4.25;2.10;;;;;;;15.04;66.08;98768.41;7399625;39;21630;31
2023/05/15 00:20:52;;;;;;;2.65;2.00;;;;;;;15.02;66.40;98777.78;7486573;38;20337;31
2023/05/15 00:26:25;;;;;;;2.90;2.20;;;;;;;14.92;66.16;98775.44;7510643;38;20297;31
2023/05/15 00:32:00;;;;;;;2.95;2.20;;;;;;;14.83;66.44;98787.56;7442049;39;20355;31
2023/05/15 00:37:20;;;;;;;2.20;2.00;;;;;;;14.86;66.46;98789.84;7398008;39;20258;31
2023/05/15 00:42:52;;;;;;;2.20;2.00;;;;;;;14.73;66.74;98779.78;7317345;39;21756;31
2023/05/15 00:48:24;;;;;;;2.50;2.10;;;;;;;14.80;66.93;98783.34;7363782;39;20259;31
2023/05/15 00:53:56;;;;;;;2.20;2.00;;;;;;;14.82;68.10;98784.00;7373859;39;21314;31
2023/05/15 00:59:24;;;;;;;4.20;2.20;;;;;;;14.87;67.10;98786.09;7409913;39;20420;31
2023/05/15 01:04:56;;;;;;;2.83;2.20;;;;;;;14.88;67.61;98788.59;7399388;39;20377;31
2023/05/15 01:10:28;;;;;;;5.10;2.20;;;;;;;14.89;67.07;98793.00;7332812;39;21852;31
2023/05/15 01:16:01;;;;;;;2.57;2.23;;;;;;;14.94;67.65;98795.09;7368616;39;21834;31
2023/05/15 01:21:41;;;;;;;2.40;2.20;;;;;;;14.95;67.58;98793.22;7308026;39;21652;31
2023/05/15 01:27:31;;;;;;;3.10;2.20;;;;;;;14.91;67.47;98795.50;7339259;39;20256;31
2023/05/15 01:33:01;;;;;;;2.20;2.00;;;;;;;14.96;67.63;98800.31;7355300;39;20307;31
2023/05/15 01:38:37;;;;;;;2.50;1.93;;;;;;;14.88;67.75;98802.16;7298884;39;21337;31
2023/05/15 01:49:12;;;;;;;3.20;2.30;;;;;;;14.64;68.23;98796.44;7379255;39;20291;31
2023/05/15 01:54:47;;;;;;;2.83;2.23;;;;;;;14.53;68.78;98800.56;7074737;39;20257;31
2023/05/15 02:06:27;;;;;;;2.60;2.40;;;;;;;14.41;68.77;98802.19;7441977;39;21111;31
2023/05/15 02:11:59;;;;;;;5.30;2.80;;;;;;;14.39;69.27;98801.56;7421657;39;21625;31
2023/05/15 02:22:37;;;;;;;3.70;2.53;;;;;;;14.42;69.05;98798.44;7481080;39;20718;31
2023/05/15 02:28:09;;;;;;;3.80;2.30;;;;;;;14.36;68.52;98791.94;7455968;39;21209;31
2023/05/15 02:33:57;;;;;;;2.80;2.50;;;;;;;14.28;69.16;98794.78;7440097;39;20336;31
2023/05/15 02:44:35;;;;;;;2.60;2.30;;;;;;;14.04;69.37;98794.44;7369117;39;20367;31
2023/05/15 02:55:15;;;;;;;2.83;2.50;;;;;;;13.83;69.31;98789.87;7401559;39;20643;31
2023/05/15 03:00:48;;;;;;;4.60;2.40;;;;;;;13.67;70.00;98776.66;7420423;39;21186;31
2023/05/15 03:11:24;;;;;;;3.07;2.20;;;;;;;13.78;69.33;98792.34;7377825;39;20272;31
2023/05/15 03:17:01;;;;;;;2.63;2.40;;;;;;;13.71;69.67;98788.75;7350586;39;21636;31
2023/05/15 03:22:34;;;;;;;3.40;2.60;;;;;;;13.47;70.20;98784.62;7413757;39;21748;31
2023/05/15 03:33:11;;;;;;;4.67;2.63;;;;;;;13.03;70.84;98792.91;7413391;39;20376;31
2023/05/15 03:38:28;;;;;;;2.60;2.33;;;;;;;13.16;70.78;98784.13;7418804;39;21774;31
2023/05/15 03:49:06;;;;;;;4.00;2.40;;;;;;;13.26;70.75;98790.03;7461696;39;20254;31
2023/05/15 03:54:38;;;;;;;3.37;2.80;;;;;;;13.32;70.28;98800.94;7404436;39;20401;31
2023/05/15 04:00:00;;;;;;;5.53;2.70;;;;;;;13.26;70.60;98801.69;7419639;39;20250;31
2023/05/15 04:05:35;;;;;;;3.30;2.40;;;;;;;13.17;70.93;98799.31;7381421;39;20453;31
2023/05/15 04:10:53;;;;;;;2.60;2.40;;;;;;;13.18;70.99;98799.13;7398314;39;21252;31
2023/05/15 04:16:28;;;;;;;4.50;2.50;;;;;;;13.10;71.08;98799.22;7399626;39;20234;31
2023/05/15 04:22:05;;;;;;;3.47;2.50;;;;;;;12.91;71.16;98797.13;7434127;39;20316;31
2023/05/15 04:27:41;;;;;;;2.60;2.40;;;;;;;12.96;71.47;98797.41;7492859;38;20280;31
2023/05/15 04:33:16;;;;;;;7.43;2.60;;;;;;;13.15;71.54;98794.09;7439296;39;21628;31
2023/05/15 04:43:53;;;;;;;2.55;2.35;;;;;;;13.26;70.36;98790.03;7421866;39;20281;31
2023/05/15 04:49:15;;;;;;;2.50;2.30;;;;;;;13.13;71.45;98793.44;7467772;38;20324;31
2023/05/15 04:54:36;;;;;;;3.00;2.50;;;;;;;13.30;71.21;98785.91;7487419;38;20265;31
2023/05/15 05:00:11;;;;;;;4.25;2.55;;;;;;;13.41;71.34;98788.09;7419254;39;20325;31
2023/05/15 05:05:44;;;;;;;3.00;2.60;;;;;;;13.42;71.77;98795.19;7420665;39;21190;31
2023/05/15 05:11:17;;;;;;;4.97;3.10;;;;;;;13.58;71.49;98794.91;7440372;39;21396;31
2023/05/15 05:16:51;;;;;;;6.60;2.90;;;;;;;13.45;72.37;98795.63;7450603;39;20272;31
2023/05/15 05:22:09;;;;;;;3.80;2.95;;;;;;;13.48;71.68;98799.81;7424363;39;20379;31
2023/05/15 05:27:44;;;;;;;5.30;2.80;;;;;;;13.46;72.34;98802.72;7403585;39;20474;31
2023/05/15 05:33:21;;;;;;;5.32;2.62;;;;;;;13.62;72.67;98809.72;7380768;39;20232;31
2023/05/15 05:38:54;;;;;;;3.10;2.80;;;;;;;13.73;71.96;98816.50;7396992;39;20238;31
2023/05/15 05:44:14;;;;;;;6.43;3.20;;;;;;;13.58;73.19;98821.16;7398915;39;20238;31
2023/05/15 05:49:50;;;;;;;4.75;2.95;;;;;;;13.50;73.57;98822.13;7399169;39;20329;31
2023/05/15 05:55:25;;;;;;;3.00;2.70;;;;;;;13.82;72.34;98818.84;7428771;39;20247;31
2023/05/15 06:00:57;;;;;;;3.10;2.80;;;;;;;14.08;72.54;98807.38;7436125;39;21208;31
2023/05/15 06:06:30;;;;;;;3.30;3.00;;;;;;;14.32;72.36;98793.34;7461476;39;21825;31
2023/05/15 06:12:04;;;;;;;5.10;2.70;;;;;;;14.56;71.36;98799.34;7441744;39;21882;31
2023/05/15 06:17:39;;;;;;;2.60;2.40;;;;;;;14.91;71.30;98811.78;7482068;38;20258;31
2023/05/15 06:23:13;;;;;;;3.70;2.40;;;;;;;15.22;70.77;98797.69;7419679;39;21216;31
2023/05/15 06:28:50;;;;;;;3.00;2.70;;;;;;;15.54;69.03;98805.03;7420405;39;20401;31
2023/05/15 06:34:21;;;;;;;2.67;2.37;;;;;;;15.81;68.51;98805.88;7419463;39;20377;31
2023/05/15 06:39:58;;;;;;;2.40;2.20;;;;;;;15.88;68.03;98800.47;7420761;39;20259;31
2023/05/15 06:45:30;;;;;;;4.70;2.70;;;;;;;16.14;68.21;98803.16;7443306;39;20299;31
2023/05/15 06:51:02;;;;;;;3.37;2.80;;;;;;;16.37;67.77;98791.78;7439587;39;21269;31
2023/05/15 07:01:40;;;;;;;4.00;2.70;;;;;;;16.64;67.16;98801.56;7411246;39;20267;31
2023/05/15 07:12:01;;;;;;;2.57;2.30;;;;;;;16.90;65.99;98796.00;7443157;39;20372;31
2023/05/15 07:17:35;;;;;;;2.70;2.23;;;;;;;17.06;65.20;98798.25;7419499;39;21397;31
2023/05/15 07:27:59;;;;;;;2.40;2.20;;;;;;;17.57;64.55;98802.72;7462664;39;20285;31
2023/05/15 07:33:32;;;;;;;2.50;2.30;;;;;;;17.74;63.14;98792.13;7461906;39;20305;31
2023/05/15 07:38:49;;;;;;;3.85;2.45;;;;;;;17.99;62.75;98795.66;7418149;39;20322;31
2023/05/15 07:49:27;;;;;;;3.10;2.80;;;;;;;18.33;63.37;98786.12;7425302;39;20277;31
2023/05/15 07:55:00;;;;;;;3.20;2.90;;;;;;;18.47;63.57;98793.91;7446265;39;21210;31
2023/05/15 08:00:18;;;;;;;4.73;2.60;;;;;;;18.64;63.14;98796.94;7459989;39;20349;31
2023/05/15 08:05:53;;;;;;;4.20;3.00;;;;;;;18.75;62.00;98792.56;7400675;39;21242;31
2023/05/15 08:16:30;;;;;;;4.40;2.40;;;;;;;19.03;61.87;98792.00;7463098;39;20270;31
2023/05/15 08:22:08;;;;;;;3.93;3.23;;;;;;;19.20;60.91;98784.84;7477039;38;20342;31
2023/05/15 08:27:44;;;;;;;3.40;3.10;;;;;;;19.29;60.79;98792.47;7509802;38;20256;31
2023/05/15 08:33:05;;;;;;;5.60;3.30;;;;;;;19.44;60.24;98783.06;7467295;38;20248;31
2023/05/15 08:38:36;;;;;;;3.10;2.80;;;;;;;19.55;59.75;98780.34;7441023;39;20469;31
2023/05/15 08:44:11;;;;;;;3.20;2.90;;;;;;;19.68;60.27;98774.66;7397810;39;20387;31
2023/05/15 08:54:53;;;;;;;2.87;2.67;;;;;;;20.10;57.25;98767.19;7428948;39;20251;31
2023/05/15 09:05:18;;;;;;;2.60;2.40;;;;;;;20.33;57.25;98757.31;7493255;38;20274;31
2023/05/15 09:15:59;;;;;;;3.20;2.90;;;;;;;20.55;56.01;98753.72;7515045;38;20253;31
2023/05/15 09:21:37;;;;;;;3.03;2.70;;;;;;;20.68;55.25;98747.97;7214716;39;21239;31
2023/05/15 09:27:15;;;;;;;3.40;2.70;;;;;;;20.38;55.56;98746.50;7462719;39;20265;31
2023/05/15 09:32:48;;;;;;;3.37;2.80;;;;;;;20.85;54.42;98744.44;7401114;39;21308;31
2023/05/15 09:38:22;;;;;;;3.30;2.90;;;;;;;21.09;54.82;98751.50;7401913;39;21179;31
2023/05/15 09:43:57;;;;;;;3.32;3.06;;;;;;;20.71;54.50;98741.19;7439260;39;21101;31
2023/05/15 09:49:31;;;;;;;3.20;2.90;;;;;;;20.39;55.30;98739.94;7419921;39;21239;31
2023/05/15 09:55:05;;;;;;;3.50;3.10;;;;;;;20.16;55.63;98738.03;7464715;39;21300;31
2023/05/15 10:00:36;;;;;;;3.73;2.70;;;;;;;20.04;55.99;98742.69;7467031;39;20336;31
2023/05/15 10:06:15;;;;;;;2.80;2.60;;;;;;;20.26;55.75;98743.75;7424802;39;21728;31
2023/05/15 10:11:47;;;;;;;4.70;2.10;;;;;;;20.39;52.45;98737.22;7379305;39;20371;31
2023/05/15 10:17:23;;;;;;;2.40;2.00;;;;;;;19.95;52.49;98741.38;7437101;39;21316;31
2023/05/15 10:28:02;;;;;;;2.93;2.20;;;;;;;19.71;55.19;98737.78;7486082;39;20388;31
2023/05/15 10:38:38;;;;;;;4.43;2.27;;;;;;;18.37;59.19;98725.41;7419596;39;20274;31
2023/05/15 10:44:12;;;;;;;6.27;2.50;;;;;;;18.23;63.85;98737.53;7445480;39;21649;31
2023/05/15 10:49:47;;;;;;;8.17;3.50;;;;;;;17.81;66.79;98755.59;7426416;39;21551;31
2023/05/15 10:55:24;;;;;;;6.40;3.25;;;;;;;17.59;68.25;98724.34;7417857;39;21366;31
2023/05/15 11:01:02;;;;;;;3.80;2.75;;;;;;;17.59;68.38;98718.88;7400859;39;21416;31
2023/05/15 11:06:42;;;;;;;4.30;2.70;;;;;;;17.52;69.30;98713.44;7456062;38;20238;31
2023/05/15 11:12:19;;;;;;;4.47;2.60;;;;;;;17.65;69.72;98717.12;7511763;38;20237;31
2023/05/15 11:17:52;;;;;;;3.95;2.60;;;;;;;17.84;69.26;98700.59;7462284;39;21687;31
2023/05/15 11:28:45;;;;;;;;;;;;;;;;;;;;;
2023/05/15 11:34:09;;;;;;;4.55;2.80;;;;;;;19.23;68.76;98694.19;7377663;39;21300;31
2023/05/15 11:39:31;;;;;;;2.92;2.62;;;;;;;19.20;67.47;98700.97;7448076;39;21121;31
2023/05/15 11:45:06;;;;;;;3.65;2.60;;;;;;;19.00;66.35;98702.34;7470096;39;20273;31
2023/05/15 11:50:42;;;;;;;3.30;2.40;;;;;;;18.81;66.74;98696.94;7491413;38;20328;31
2023/05/15 11:56:03;;;;;;;4.53;2.63;;;;;;;18.58;67.24;98685.06;7486319;38;20283;31
2023/05/15 12:01:38;;;;;;;2.80;2.60;;;;;;;18.54;67.12;98686.59;7462058;39;21185;31
2023/05/15 12:07:12;;;;;;;2.93;2.60;;;;;;;18.80;66.06;98684.34;7398936;39;21287;31
2023/05/15 12:12:47;;;;;;;4.00;2.80;;;;;;;19.19;63.72;98671.97;7334890;39;21316;31
2023/05/15 12:23:25;;;;;;;2.77;2.57;;;;;;;19.22;63.66;98674.22;7364792;39;20286;31
2023/05/15 12:29:01;;;;;;;3.00;2.70;;;;;;;19.15;62.01;98680.88;7420401;39;20245;31
2023/05/15 12:34:36;;;;;;;3.20;2.90;;;;;;;18.97;63.16;98692.69;7465343;39;20248;31
2023/05/15 12:40:11;;;;;;;4.53;2.87;;;;;;;18.92;66.08;98707.06;7488604;39;21140;31
2023/05/15 12:45:46;;;;;;;10.50;3.60;;;;;;;18.69;68.66;98714.34;7444813;39;21280;31
2023/05/15 12:51:21;;;;;;;4.23;3.23;;;;;;;18.55;67.86;98713.66;7380825;39;21212;31
2023/05/15 12:56:57;;;;;;;4.65;3.25;;;;;;;18.41;67.28;98709.41;7410434;39;20318;31
2023/05/15 13:02:32;;;;;;;4.10;3.50;;;;;;;18.54;65.90;98701.06;7397967;39;20255;31
2023/05/15 13:08:06;;;;;;;5.45;3.40;;;;;;;18.72;66.18;98708.41;7390465;39;20269;31
2023/05/15 13:13:39;;;;;;;5.30;3.40;;;;;;;18.87;66.94;98695.16;7444193;39;21379;31
2023/05/15 13:24:36;;;;;;;3.00;2.80;;;;;;;18.74;68.31;98698.06;7437036;39;20364;31
2023/05/15 13:35:17;;;;;;;4.60;3.40;;;;;;;18.71;68.09;98688.44;7518402;38;20275;31
2023/05/15 13:45:38;;;;;;;4.25;2.70;;;;;;;19.13;65.57;98675.63;7419423;39;20262;31
2023/05/15 13:51:14;;;;;;;3.90;3.00;;;;;;;19.11;64.24;98666.00;7401266;39;20383;31
2023/05/15 14:01:39;;;;;;;5.27;3.00;;;;;;;18.96;63.29;98680.09;7447494;39;21501;31
2023/05/15 14:07:15;;;;;;;2.70;2.50;;;;;;;19.15;62.58;98669.94;7377502;39;20286;31
2023/05/15 14:12:48;;;;;;;2.70;2.40;;;;;;;19.20;62.45;98675.53;7402202;39;21262;31
2023/05/15 14:18:24;;;;;;;2.97;2.30;;;;;;;19.33;61.86;98667.13;7379781;39;21648;31
2023/05/15 14:23:57;;;;;;;3.90;2.30;;;;;;;19.44;61.42;98674.53;7421687;39;21254;31
2023/05/15 14:29:15;;;;;;;5.20;2.60;;;;;;;19.45;61.18;98675.34;7402584;39;21369;31
2023/05/15 14:34:47;;;;;;;3.03;2.27;;;;;;;19.51;61.46;98680.72;7435096;39;21608;31
2023/05/15 14:40:25;;;;;;;3.13;2.83;;;;;;;19.30;61.87;98678.53;7464719;38;20315;31
2023/05/15 14:46:01;;;;;;;4.20;3.00;;;;;;;19.20;61.95;98683.72;7447390;39;20254;31
2023/05/15 14:51:22;;;;;;;3.50;3.20;;;;;;;19.17;62.59;98684.22;7488138;38;20237;31
2023/05/15 14:56:59;;;;;;;4.10;3.70;;;;;;;19.28;62.51;98686.12;7509342;38;20334;31
2023/05/15 15:02:19;;;;;;;4.85;4.30;;;;;;;19.40;61.70;98686.97;7511290;38;20333;31
2023/05/15 15:08:12;;;;;;;11.40;3.80;;;;;;;19.56;61.44;98700.00;7400338;39;20246;31
2023/05/15 15:13:46;;;;;;;4.03;3.63;;;;;;;19.44;62.43;98696.38;7441643;39;21295;31
2023/05/15 15:19:20;;;;;;;4.60;3.95;;;;;;;19.32;63.25;98706.44;7441023;39;20242;31
2023/05/15 15:24:55;;;;;;;4.90;4.45;;;;;;;19.26;62.37;98701.94;7399527;39;20385;31
2023/05/15 15:35:36;;;;;;;5.37;4.87;;;;;;;18.69;58.68;98708.88;7443597;39;20259;31
2023/05/15 15:46:16;;;;;;;5.40;4.80;;;;;;;18.56;58.14;98731.69;7506639;38;20257;31
2023/05/15 15:51:53;;;;;;;4.97;4.47;;;;;;;18.27;57.57;98718.81;7487097;39;20277;31
2023/05/15 15:57:28;;;;;;;5.37;4.20;;;;;;;18.06;58.28;98703.72;7514439;38;20377;31
2023/05/15 16:02:45;;;;;;;6.60;4.70;;;;;;;18.27;59.54;98707.88;7459348;39;21701;31
2023/05/15 16:13:28;;;;;;;7.93;5.20;;;;;;;18.14;57.87;98700.69;7462411;39;21311;31
2023/05/15 16:18:49;;;;;;;5.97;4.20;;;;;;;18.20;60.29;98698.97;7456958;38;20273;31
2023/05/15 16:24:25;;;;;;;5.15;4.65;;;;;;;18.24;60.30;98695.53;7279682;39;21016;31
2023/05/15 16:30:01;;;;;;;4.93;4.53;;;;;;;18.25;60.87;98689.03;7471802;39;20253;31
2023/05/15 16:35:21;;;;;;;5.00;4.55;;;;;;;18.24;60.71;98679.19;7468245;39;20329;31
2023/05/15 16:45:59;;;;;;;5.13;4.63;;;;;;;18.02;61.12;98684.25;7480739;39;20396;31
2023/05/15 16:56:21;;;;;;;5.70;4.50;;;;;;;18.03;61.68;98702.28;7461515;39;20274;31
2023/05/15 17:06:59;;;;;;;6.63;4.33;;;;;;;17.92;61.95;98697.56;7462669;39;20257;31
2023/05/15 17:12:35;;;;;;;9.00;4.10;;;;;;;17.93;62.05;98706.59;7399588;39;21252;31
2023/05/15 17:17:52;;;;;;;5.25;4.10;;;;;;;17.90;60.94;98713.31;7359953;39;20250;31
2023/05/15 17:23:27;;;;;;;4.60;4.20;;;;;;;17.88;60.94;98711.88;7302404;39;20419;31
2023/05/15 17:28:45;;;;;;;8.30;4.30;;;;;;;17.89;61.40;98744.41;7384209;39;21384;31
2023/05/15 17:39:23;;;;;;;3.90;3.60;;;;;;;17.43;58.16;98752.09;7352123;39;20418;31
2023/05/15 17:50:03;;;;;;;6.27;3.90;;;;;;;17.34;60.74;98756.97;7461323;38;20284;31
2023/05/15 18:00:39;;;;;;;4.50;3.90;;;;;;;17.28;60.28;98762.50;7459495;39;20438;31
2023/05/15 18:06:00;;;;;;;5.35;3.85;;;;;;;17.42;61.32;98775.78;7443159;39;20364;31
2023/05/15 18:11:35;;;;;;;4.93;4.20;;;;;;;17.46;61.56;98773.47;7457449;39;20377;31
2023/05/15 18:17:12;;;;;;;4.55;4.15;;;;;;;17.44;61.45;98791.91;7462799;39;20281;31
2023/05/15 18:27:52;;;;;;;5.60;4.40;;;;;;;17.33;61.19;98796.16;7421363;39;20273;31
2023/05/15 18:38:34;;;;;;;4.40;3.90;;;;;;;17.38;61.92;98799.06;7488366;38;20257;31
2023/05/15 18:44:09;;;;;;;5.55;4.50;;;;;;;17.35;62.48;98804.97;7484168;39;20274;31
2023/05/15 18:49:37;;;;;;;4.80;4.40;;;;;;;17.32;62.65;98812.75;7443142;39;22024;31
2023/05/15 18:55:13;;;;;;;5.85;4.70;;;;;;;17.29;63.38;98816.72;7418476;39;20829;31
2023/05/15 19:26:10;;;;;;;8.35;5.00;;;;;;;17.09;64.46;98833.19;7445120;39;20269;31
2023/05/15 19:36:51;;;;;;;6.17;4.83;;;;;;;17.08;64.40;98842.41;7441425;39;20269;31
2023/05/15 19:47:32;;;;;;;7.30;5.25;;;;;;;16.98;65.01;98844.75;7402281;39;20268;31
2023/05/15 20:03:17;;;;;;;9.23;5.37;;;;;;;16.85;65.40;98854.91;7459618;39;21264;31
2023/05/15 20:08:51;;;;;;;5.87;5.23;;;;;;;16.85;65.68;98852.97;7420285;39;20266;31
2023/05/15 20:14:18;;;;;;;6.90;5.90;;;;;;;16.79;66.57;98870.19;7378727;39;21264;31
2023/05/15 20:24:58;;;;;;;9.00;5.60;;;;;;;16.72;67.52;98879.44;7422694;39;20394;31
2023/05/15 20:35:29;;;;;;;6.37;5.77;;;;;;;16.43;67.17;98897.03;7470899;39;21083;31
2023/05/15 20:51:15;;;;;;;6.80;6.10;;;;;;;16.50;66.47;98895.13;7437956;39;21313;31
2023/05/15 21:01:54;;;;;;;10.13;6.77;;;;;;;16.41;66.31;98894.50;7419698;39;20271;31
2023/05/15 21:07:30;;;;;;;6.77;5.97;;;;;;;16.45;66.08;98901.22;7421690;39;21978;31
2023/05/15 21:18:02;;;;;;;6.80;6.03;;;;;;;16.46;66.53;98913.75;7437526;39;20307;31
2023/05/15 21:23:41;;;;;;;8.80;6.40;;;;;;;16.38;66.13;98900.38;7436297;39;20357;31
2023/05/15 21:34:20;;;;;;;8.67;6.80;;;;;;;16.22;67.21;98898.09;7399416;39;20281;31
2023/05/15 21:39:57;;;;;;;7.35;6.45;;;;;;;16.19;68.57;98906.69;7425742;39;20297;31
2023/05/15 21:45:24;;;;;;;6.75;5.80;;;;;;;16.26;68.58;98903.94;7443700;39;20322;31
2023/05/15 21:50:59;;;;;;;9.13;6.33;;;;;;;16.24;69.13;98901.44;7379585;39;21943;31
2023/05/15 21:56:35;;;;;;;7.30;6.35;;;;;;;16.11;70.40;98913.16;7395969;39;21267;31
2023/05/15 22:07:15;;;;;;;7.10;6.40;;;;;;;16.03;71.25;98907.94;7422956;39;20280;31
2023/05/15 22:13:01;;;;;;;7.77;7.00;;;;;;;16.00;70.62;98913.78;7423966;39;20242;31
2023/05/15 22:18:36;;;;;;;8.05;6.65;;;;;;;16.03;69.89;98913.38;7440406;39;21333;31
2023/05/15 22:24:03;;;;;;;6.85;6.15;;;;;;;16.06;70.53;98912.13;7361868;39;22061;31
2023/05/15 22:29:39;;;;;;;6.63;5.97;;;;;;;15.72;68.82;98913.13;7397848;39;21871;31
2023/05/15 22:40:18;;;;;;;6.80;6.10;;;;;;;15.49;67.89;98920.78;7435191;39;21081;31
2023/05/15 23:06:11;;;;;;;7.50;6.70;;;;;;;15.28;66.87;98925.28;7510772;38;20261;31
2023/05/15 23:37:09;;;;;;;19.30;13.40;;;;;;;14.98;67.27;98914.94;7492779;38;20257;31
2023/05/15 23:47:49;;;;;;;17.90;15.20;;;;;;;14.78;68.96;98923.81;7418334;39;20421;31
2023/05/15 23:58:30;;;;;;;22.70;17.40;;;;;;;14.71;69.45;98917.50;7440519;38;20272;31
